sensor_id;sensor_type;location;lat;lon;timestamp;P1;durP1;ratioP1;P2;durP2;ratioP2
43487;SDS011;29078;41.932;25.554;2022-09-12T05:41:55;4.57;;;3.17;;
43487;SDS011;29078;41.932;25.554;2022-09-12T05:44:21;6.32;;;3.30;;
43487;SDS011;29078;41.932;25.554;2022-09-12T05:46:46;3.65;;;3.13;;
43487;SDS011;29078;41.932;25.554;2022-09-12T05:49:15;4.38;;;3.15;;
43487;SDS011;29078;41.932;25.554;2022-09-12T05:51:42;5.30;;;3.15;;
43487;SDS011;29078;41.932;25.554;2022-09-12T05:54:10;3.40;;;3.10;;
43487;SDS011;29078;41.932;25.554;2022-09-12T05:56:38;4.47;;;3.33;;
43487;SDS011;29078;41.932;25.554;2022-09-12T05:59:06;3.17;;;2.85;;
43487;SDS011;29078;41.932;25.554;2022-09-12T06:01:36;3.03;;;2.73;;
43487;SDS011;29078;41.932;25.554;2022-09-12T06:04:03;4.10;;;3.63;;
43487;SDS011;29078;41.932;25.554;2022-09-12T06:06:30;5.22;;;4.30;;
43487;SDS011;29078;41.932;25.554;2022-09-12T06:08:57;6.72;;;3.90;;
43487;SDS011;29078;41.932;25.554;2022-09-12T06:11:25;5.88;;;4.10;;
43487;SDS011;29078;41.932;25.554;2022-09-12T06:13:52;4.88;;;4.18;;
43487;SDS011;29078;41.932;25.554;2022-09-12T06:16:20;4.15;;;3.30;;
43487;SDS011;29078;41.932;25.554;2022-09-12T06:18:48;5.15;;;3.22;;
43487;SDS011;29078;41.932;25.554;2022-09-12T06:21:15;4.18;;;2.78;;
43487;SDS011;29078;41.932;25.554;2022-09-12T06:23:41;4.57;;;3.25;;
43487;SDS011;29078;41.932;25.554;2022-09-12T06:26:09;3.88;;;2.88;;
43487;SDS011;29078;41.932;25.554;2022-09-12T06:28:39;4.60;;;2.58;;
43487;SDS011;29078;41.932;25.554;2022-09-12T06:31:10;4.68;;;3.08;;
43487;SDS011;29078;41.932;25.554;2022-09-12T06:33:39;5.65;;;3.30;;
43487;SDS011;29078;41.932;25.554;2022-09-12T06:36:11;4.38;;;3.38;;
43487;SDS011;29078;41.932;25.554;2022-09-12T06:38:41;5.57;;;2.47;;
43487;SDS011;29078;41.932;25.554;2022-09-12T06:41:08;2.85;;;2.50;;
43487;SDS011;29078;41.932;25.554;2022-09-12T06:43:36;3.72;;;2.50;;
43487;SDS011;29078;41.932;25.554;2022-09-12T06:46:03;4.93;;;2.30;;
43487;SDS011;29078;41.932;25.554;2022-09-12T06:48:29;4.13;;;1.98;;
43487;SDS011;29078;41.932;25.554;2022-09-12T06:50:58;5.80;;;3.20;;
43487;SDS011;29078;41.932;25.554;2022-09-12T06:53:27;3.15;;;2.70;;
43487;SDS011;29078;41.932;25.554;2022-09-12T06:55:57;5.85;;;5.25;;
43487;SDS011;29078;41.932;25.554;2022-09-12T06:58:25;5.88;;;4.18;;
43487;SDS011;29078;41.932;25.554;2022-09-12T07:00:51;4.28;;;3.88;;
43487;SDS011;29078;41.932;25.554;2022-09-12T07:03:17;5.03;;;3.10;;
43487;SDS011;29078;41.932;25.554;2022-09-12T07:05:44;4.63;;;3.03;;
43487;SDS011;29078;41.932;25.554;2022-09-12T07:08:09;2.65;;;1.90;;
43487;SDS011;29078;41.932;25.554;2022-09-12T07:10:35;2.65;;;1.77;;
43487;SDS011;29078;41.932;25.554;2022-09-12T07:13:00;3.00;;;2.10;;
43487;SDS011;29078;41.932;25.554;2022-09-12T07:15:26;4.25;;;2.10;;
43487;SDS011;29078;41.932;25.554;2022-09-12T07:17:51;3.55;;;1.88;;
43487;SDS011;29078;41.932;25.554;2022-09-12T07:20:16;4.22;;;2.38;;
43487;SDS011;29078;41.932;25.554;2022-09-12T07:22:42;7.75;;;3.35;;
43487;SDS011;29078;41.932;25.554;2022-09-12T07:25:07;6.05;;;2.90;;
43487;SDS011;29078;41.932;25.554;2022-09-12T07:27:33;3.95;;;2.92;;
43487;SDS011;29078;41.932;25.554;2022-09-12T07:29:58;2.47;;;2.20;;
43487;SDS011;29078;41.932;25.554;2022-09-12T07:32:24;3.08;;;1.75;;
43487;SDS011;29078;41.932;25.554;2022-09-12T07:34:50;3.28;;;2.13;;
43487;SDS011;29078;41.932;25.554;2022-09-12T07:37:16;2.50;;;1.95;;
43487;SDS011;29078;41.932;25.554;2022-09-12T07:39:41;3.78;;;2.20;;
43487;SDS011;29078;41.932;25.554;2022-09-12T07:42:07;3.95;;;1.77;;
43487;SDS011;29078;41.932;25.554;2022-09-12T07:44:32;5.90;;;3.22;;
43487;SDS011;29078;41.932;25.554;2022-09-12T07:46:58;5.90;;;4.82;;
43487;SDS011;29078;41.932;25.554;2022-09-12T07:49:24;2.67;;;1.42;;
43487;SDS011;29078;41.932;25.554;2022-09-12T07:51:49;5.45;;;4.07;;
43487;SDS011;29078;41.932;25.554;2022-09-12T07:54:15;4.85;;;2.47;;
43487;SDS011;29078;41.932;25.554;2022-09-12T07:56:41;2.25;;;1.63;;
43487;SDS011;29078;41.932;25.554;2022-09-12T07:59:07;4.13;;;1.60;;
43487;SDS011;29078;41.932;25.554;2022-09-12T08:01:33;2.25;;;1.55;;
43487;SDS011;29078;41.932;25.554;2022-09-12T08:03:58;4.22;;;1.98;;
43487;SDS011;29078;41.932;25.554;2022-09-12T08:06:25;2.15;;;1.50;;
43487;SDS011;29078;41.932;25.554;2022-09-12T08:08:53;2.53;;;1.73;;
43487;SDS011;29078;41.932;25.554;2022-09-12T08:11:20;2.78;;;2.15;;
43487;SDS011;29078;41.932;25.554;2022-09-12T08:13:47;4.88;;;1.67;;
43487;SDS011;29078;41.932;25.554;2022-09-12T08:16:14;3.30;;;1.40;;
43487;SDS011;29078;41.932;25.554;2022-09-12T08:18:42;4.15;;;2.13;;
43487;SDS011;29078;41.932;25.554;2022-09-12T08:21:26;1.95;;;1.52;;
43487;SDS011;29078;41.932;25.554;2022-09-12T08:23:57;1.92;;;1.45;;
43487;SDS011;29078;41.932;25.554;2022-09-12T08:28:53;1.60;;;1.13;;
43487;SDS011;29078;41.932;25.554;2022-09-12T08:31:20;2.80;;;1.40;;
43487;SDS011;29078;41.932;25.554;2022-09-12T08:33:46;1.88;;;1.05;;
43487;SDS011;29078;41.932;25.554;2022-09-12T08:36:13;2.70;;;0.85;;
43487;SDS011;29078;41.932;25.554;2022-09-12T08:38:39;3.30;;;0.90;;
43487;SDS011;29078;41.932;25.554;2022-09-12T08:52:21;1.73;;;0.80;;
43487;SDS011;29078;41.932;25.554;2022-09-12T08:54:53;0.95;;;0.93;;
43487;SDS011;29078;41.932;25.554;2022-09-12T08:57:20;2.10;;;1.25;;
43487;SDS011;29078;41.932;25.554;2022-09-12T08:59:48;4.10;;;0.90;;
43487;SDS011;29078;41.932;25.554;2022-09-12T09:02:28;2.22;;;1.27;;
43487;SDS011;29078;41.932;25.554;2022-09-12T09:10:48;3.63;;;1.00;;
43487;SDS011;29078;41.932;25.554;2022-09-12T09:16:26;3.97;;;1.00;;
43487;SDS011;29078;41.932;25.554;2022-09-12T09:18:55;1.58;;;0.70;;
43487;SDS011;29078;41.932;25.554;2022-09-12T09:21:27;2.72;;;0.75;;
43487;SDS011;29078;41.932;25.554;2022-09-12T09:24:04;1.52;;;0.90;;
43487;SDS011;29078;41.932;25.554;2022-09-12T09:29:14;2.22;;;1.45;;
43487;SDS011;29078;41.932;25.554;2022-09-12T09:31:46;2.97;;;0.90;;
43487;SDS011;29078;41.932;25.554;2022-09-12T09:36:50;1.80;;;1.23;;
43487;SDS011;29078;41.932;25.554;2022-09-12T09:47:35;2.17;;;1.73;;
43487;SDS011;29078;41.932;25.554;2022-09-12T09:50:01;1.05;;;0.90;;
43487;SDS011;29078;41.932;25.554;2022-09-12T09:52:28;3.10;;;1.45;;
43487;SDS011;29078;41.932;25.554;2022-09-12T09:54:58;1.42;;;1.10;;
43487;SDS011;29078;41.932;25.554;2022-09-12T10:03:02;2.22;;;0.93;;
43487;SDS011;29078;41.932;25.554;2022-09-12T10:05:32;1.25;;;0.68;;
43487;SDS011;29078;41.932;25.554;2022-09-12T10:08:00;1.73;;;0.77;;
43487;SDS011;29078;41.932;25.554;2022-09-12T10:10:34;5.65;;;0.95;;
43487;SDS011;29078;41.932;25.554;2022-09-12T10:13:24;2.10;;;1.70;;
43487;SDS011;29078;41.932;25.554;2022-09-12T10:15:58;1.42;;;0.95;;
43487;SDS011;29078;41.932;25.554;2022-09-12T10:18:36;3.35;;;0.98;;
43487;SDS011;29078;41.932;25.554;2022-09-12T10:21:11;2.67;;;0.65;;
43487;SDS011;29078;41.932;25.554;2022-09-12T10:23:43;2.65;;;1.15;;
43487;SDS011;29078;41.932;25.554;2022-09-12T10:26:11;3.85;;;1.60;;
43487;SDS011;29078;41.932;25.554;2022-09-12T10:28:48;1.77;;;1.15;;
43487;SDS011;29078;41.932;25.554;2022-09-12T10:31:22;0.98;;;0.80;;
43487;SDS011;29078;41.932;25.554;2022-09-12T10:33:53;2.35;;;0.85;;
43487;SDS011;29078;41.932;25.554;2022-09-12T10:36:21;1.70;;;0.98;;
43487;SDS011;29078;41.932;25.554;2022-09-12T10:38:52;0.73;;;0.60;;
43487;SDS011;29078;41.932;25.554;2022-09-12T10:41:20;1.65;;;1.15;;
43487;SDS011;29078;41.932;25.554;2022-09-12T10:43:48;1.52;;;1.10;;
43487;SDS011;29078;41.932;25.554;2022-09-12T10:48:40;2.78;;;0.85;;
43487;SDS011;29078;41.932;25.554;2022-09-12T10:51:12;2.35;;;1.15;;
43487;SDS011;29078;41.932;25.554;2022-09-12T10:53:47;3.25;;;0.98;;
43487;SDS011;29078;41.932;25.554;2022-09-12T11:06:30;2.67;;;0.75;;
43487;SDS011;29078;41.932;25.554;2022-09-12T11:09:41;2.47;;;1.27;;
43487;SDS011;29078;41.932;25.554;2022-09-12T11:12:18;2.20;;;0.73;;
43487;SDS011;29078;41.932;25.554;2022-09-12T11:34:02;1.77;;;0.70;;
43487;SDS011;29078;41.932;25.554;2022-09-12T11:39:42;1.88;;;0.85;;
43487;SDS011;29078;41.932;25.554;2022-09-12T11:42:18;0.98;;;0.60;;
43487;SDS011;29078;41.932;25.554;2022-09-12T11:44:56;1.23;;;1.10;;
43487;SDS011;29078;41.932;25.554;2022-09-12T11:47:45;1.15;;;0.80;;
43487;SDS011;29078;41.932;25.554;2022-09-12T11:50:21;3.78;;;1.20;;
43487;SDS011;29078;41.932;25.554;2022-09-12T11:53:10;3.63;;;1.40;;
43487;SDS011;29078;41.932;25.554;2022-09-12T11:55:53;5.45;;;1.10;;
43487;SDS011;29078;41.932;25.554;2022-09-12T11:58:25;1.30;;;1.00;;
43487;SDS011;29078;41.932;25.554;2022-09-12T12:00:55;1.50;;;1.40;;
43487;SDS011;29078;41.932;25.554;2022-09-12T12:03:39;1.73;;;0.82;;
43487;SDS011;29078;41.932;25.554;2022-09-12T12:08:39;1.65;;;1.00;;
43487;SDS011;29078;41.932;25.554;2022-09-12T12:11:07;2.22;;;1.63;;
43487;SDS011;29078;41.932;25.554;2022-09-12T12:13:35;1.15;;;1.05;;
43487;SDS011;29078;41.932;25.554;2022-09-12T12:16:11;2.42;;;2.17;;
43487;SDS011;29078;41.932;25.554;2022-09-12T12:18:38;2.95;;;1.70;;
43487;SDS011;29078;41.932;25.554;2022-09-12T12:29:11;3.05;;;1.45;;
43487;SDS011;29078;41.932;25.554;2022-09-12T12:34:28;3.28;;;2.53;;
43487;SDS011;29078;41.932;25.554;2022-09-12T12:48:09;3.88;;;1.48;;
43487;SDS011;29078;41.932;25.554;2022-09-12T12:50:38;1.35;;;1.00;;
43487;SDS011;29078;41.932;25.554;2022-09-12T12:58:18;2.05;;;0.60;;
43487;SDS011;29078;41.932;25.554;2022-09-12T13:03:33;1.77;;;0.60;;
43487;SDS011;29078;41.932;25.554;2022-09-12T13:06:01;1.02;;;0.93;;
43487;SDS011;29078;41.932;25.554;2022-09-12T13:08:34;1.77;;;1.10;;
43487;SDS011;29078;41.932;25.554;2022-09-12T13:11:13;2.22;;;1.23;;
43487;SDS011;29078;41.932;25.554;2022-09-12T13:13:51;1.27;;;1.05;;
43487;SDS011;29078;41.932;25.554;2022-09-12T13:16:35;1.40;;;1.20;;
43487;SDS011;29078;41.932;25.554;2022-09-12T13:19:06;1.03;;;0.70;;
43487;SDS011;29078;41.932;25.554;2022-09-12T13:21:38;1.95;;;1.23;;
43487;SDS011;29078;41.932;25.554;2022-09-12T13:24:12;2.47;;;0.70;;
43487;SDS011;29078;41.932;25.554;2022-09-12T13:26:41;1.20;;;0.73;;
43487;SDS011;29078;41.932;25.554;2022-09-12T13:29:15;6.47;;;1.00;;
43487;SDS011;29078;41.932;25.554;2022-09-12T13:31:46;2.75;;;0.63;;
43487;SDS011;29078;41.932;25.554;2022-09-12T13:34:17;0.85;;;0.40;;
43487;SDS011;29078;41.932;25.554;2022-09-12T13:44:58;0.70;;;0.70;;
43487;SDS011;29078;41.932;25.554;2022-09-12T13:47:29;1.00;;;0.70;;
43487;SDS011;29078;41.932;25.554;2022-09-12T13:49:59;2.15;;;0.65;;
43487;SDS011;29078;41.932;25.554;2022-09-12T13:52:30;2.75;;;1.10;;
43487;SDS011;29078;41.932;25.554;2022-09-12T13:54:58;1.92;;;0.85;;
43487;SDS011;29078;41.932;25.554;2022-09-12T13:57:27;2.70;;;0.95;;
43487;SDS011;29078;41.932;25.554;2022-09-12T14:00:12;3.78;;;1.30;;
43487;SDS011;29078;41.932;25.554;2022-09-12T14:02:44;1.60;;;0.95;;
43487;SDS011;29078;41.932;25.554;2022-09-12T14:05:20;2.88;;;1.00;;
43487;SDS011;29078;41.932;25.554;2022-09-12T14:10:32;2.72;;;1.20;;
43487;SDS011;29078;41.932;25.554;2022-09-12T14:13:00;1.55;;;0.90;;
43487;SDS011;29078;41.932;25.554;2022-09-12T14:15:30;1.88;;;1.08;;
43487;SDS011;29078;41.932;25.554;2022-09-12T14:17:58;1.40;;;1.30;;
43487;SDS011;29078;41.932;25.554;2022-09-12T14:20:26;1.23;;;1.13;;
43487;SDS011;29078;41.932;25.554;2022-09-12T14:22:57;2.40;;;0.75;;
43487;SDS011;29078;41.932;25.554;2022-09-12T14:25:26;2.22;;;1.92;;
43487;SDS011;29078;41.932;25.554;2022-09-12T14:27:56;2.20;;;2.00;;
43487;SDS011;29078;41.932;25.554;2022-09-12T14:33:21;1.77;;;1.48;;
43487;SDS011;29078;41.932;25.554;2022-09-12T14:40:40;1.45;;;1.00;;
43487;SDS011;29078;41.932;25.554;2022-09-12T14:43:43;2.95;;;1.23;;
43487;SDS011;29078;41.932;25.554;2022-09-12T14:46:04;1.60;;;1.38;;
43487;SDS011;29078;41.932;25.554;2022-09-12T14:48:33;1.42;;;1.20;;
43487;SDS011;29078;41.932;25.554;2022-09-12T14:51:01;2.55;;;1.27;;
43487;SDS011;29078;41.932;25.554;2022-09-12T14:58:29;1.63;;;1.50;;
43487;SDS011;29078;41.932;25.554;2022-09-12T15:03:34;2.85;;;1.40;;
43487;SDS011;29078;41.932;25.554;2022-09-12T15:06:26;2.83;;;1.40;;
43487;SDS011;29078;41.932;25.554;2022-09-12T15:08:56;1.10;;;1.00;;
43487;SDS011;29078;41.932;25.554;2022-09-12T15:11:24;2.08;;;1.30;;
43487;SDS011;29078;41.932;25.554;2022-09-12T15:13:50;2.67;;;1.13;;
43487;SDS011;29078;41.932;25.554;2022-09-12T15:16:16;0.80;;;0.80;;
43487;SDS011;29078;41.932;25.554;2022-09-12T15:18:41;3.17;;;1.15;;
43487;SDS011;29078;41.932;25.554;2022-09-12T15:21:09;1.73;;;1.33;;
43487;SDS011;29078;41.932;25.554;2022-09-12T15:23:49;1.40;;;1.20;;
43487;SDS011;29078;41.932;25.554;2022-09-12T15:26:26;2.05;;;1.00;;
43487;SDS011;29078;41.932;25.554;2022-09-12T15:28:54;2.20;;;0.90;;
43487;SDS011;29078;41.932;25.554;2022-09-12T15:31:24;2.45;;;1.10;;
43487;SDS011;29078;41.932;25.554;2022-09-12T15:33:51;1.63;;;1.00;;
43487;SDS011;29078;41.932;25.554;2022-09-12T15:36:18;3.28;;;1.20;;
43487;SDS011;29078;41.932;25.554;2022-09-12T15:38:45;2.15;;;0.90;;
43487;SDS011;29078;41.932;25.554;2022-09-12T15:41:21;1.10;;;1.00;;
43487;SDS011;29078;41.932;25.554;2022-09-12T15:43:50;2.28;;;1.10;;
43487;SDS011;29078;41.932;25.554;2022-09-12T15:46:15;1.52;;;1.10;;
43487;SDS011;29078;41.932;25.554;2022-09-12T15:48:43;2.05;;;0.88;;
43487;SDS011;29078;41.932;25.554;2022-09-12T15:51:16;2.17;;;1.00;;
43487;SDS011;29078;41.932;25.554;2022-09-12T15:53:43;1.00;;;1.00;;
43487;SDS011;29078;41.932;25.554;2022-09-12T15:56:10;1.70;;;1.08;;
43487;SDS011;29078;41.932;25.554;2022-09-12T15:58:36;1.05;;;0.90;;
43487;SDS011;29078;41.932;25.554;2022-09-12T16:01:02;3.28;;;2.30;;
43487;SDS011;29078;41.932;25.554;2022-09-12T16:03:28;2.40;;;2.20;;
43487;SDS011;29078;41.932;25.554;2022-09-12T16:05:55;4.40;;;3.10;;
43487;SDS011;29078;41.932;25.554;2022-09-12T16:08:22;3.92;;;3.17;;
43487;SDS011;29078;41.932;25.554;2022-09-12T16:10:54;1.95;;;1.75;;
43487;SDS011;29078;41.932;25.554;2022-09-12T16:13:21;2.13;;;1.67;;
43487;SDS011;29078;41.932;25.554;2022-09-12T16:15:47;2.08;;;1.80;;
43487;SDS011;29078;41.932;25.554;2022-09-12T16:18:13;3.35;;;2.10;;
43487;SDS011;29078;41.932;25.554;2022-09-12T16:20:38;4.63;;;1.80;;
43487;SDS011;29078;41.932;25.554;2022-09-12T16:23:04;5.63;;;2.72;;
43487;SDS011;29078;41.932;25.554;2022-09-12T16:25:30;5.15;;;4.57;;
43487;SDS011;29078;41.932;25.554;2022-09-12T16:27:56;3.63;;;3.33;;
43487;SDS011;29078;41.932;25.554;2022-09-12T16:30:22;5.18;;;3.75;;
43487;SDS011;29078;41.932;25.554;2022-09-12T16:32:47;3.55;;;3.25;;
43487;SDS011;29078;41.932;25.554;2022-09-12T16:35:13;3.33;;;3.05;;
43487;SDS011;29078;41.932;25.554;2022-09-12T16:37:38;4.15;;;3.45;;
43487;SDS011;29078;41.932;25.554;2022-09-12T16:40:04;3.88;;;3.40;;
43487;SDS011;29078;41.932;25.554;2022-09-12T16:42:31;6.45;;;3.40;;
43487;SDS011;29078;41.932;25.554;2022-09-12T16:44:56;3.88;;;3.40;;
43487;SDS011;29078;41.932;25.554;2022-09-12T16:47:22;4.47;;;3.55;;
43487;SDS011;29078;41.932;25.554;2022-09-12T16:49:47;4.13;;;3.75;;
43487;SDS011;29078;41.932;25.554;2022-09-12T16:52:13;4.32;;;3.70;;
43487;SDS011;29078;41.932;25.554;2022-09-12T16:54:40;4.20;;;3.28;;
43487;SDS011;29078;41.932;25.554;2022-09-12T16:57:08;4.65;;;3.58;;
43487;SDS011;29078;41.932;25.554;2022-09-12T16:59:34;4.65;;;3.35;;
43487;SDS011;29078;41.932;25.554;2022-09-12T17:02:00;4.80;;;3.75;;
43487;SDS011;29078;41.932;25.554;2022-09-12T17:04:25;4.95;;;3.45;;
43487;SDS011;29078;41.932;25.554;2022-09-12T17:06:51;5.43;;;3.47;;
43487;SDS011;29078;41.932;25.554;2022-09-12T17:09:16;4.25;;;3.63;;
43487;SDS011;29078;41.932;25.554;2022-09-12T17:11:43;5.70;;;3.58;;
43487;SDS011;29078;41.932;25.554;2022-09-12T17:14:09;3.67;;;3.47;;
43487;SDS011;29078;41.932;25.554;2022-09-12T17:16:39;5.00;;;4.50;;
43487;SDS011;29078;41.932;25.554;2022-09-12T17:19:06;4.57;;;4.15;;
43487;SDS011;29078;41.932;25.554;2022-09-12T17:21:33;5.20;;;4.00;;
43487;SDS011;29078;41.932;25.554;2022-09-12T17:23:59;4.65;;;4.15;;
43487;SDS011;29078;41.932;25.554;2022-09-12T17:26:24;6.03;;;5.53;;
43487;SDS011;29078;41.932;25.554;2022-09-12T17:28:50;6.50;;;5.25;;
43487;SDS011;29078;41.932;25.554;2022-09-12T17:31:16;5.40;;;4.90;;
43487;SDS011;29078;41.932;25.554;2022-09-12T17:33:42;5.03;;;4.45;;
43487;SDS011;29078;41.932;25.554;2022-09-12T17:36:12;4.28;;;3.88;;
43487;SDS011;29078;41.932;25.554;2022-09-12T17:38:39;4.53;;;3.70;;
43487;SDS011;29078;41.932;25.554;2022-09-12T17:41:09;4.47;;;4.10;;
43487;SDS011;29078;41.932;25.554;2022-09-12T17:43:41;6.35;;;5.22;;
43487;SDS011;29078;41.932;25.554;2022-09-12T17:46:09;4.50;;;4.15;;
43487;SDS011;29078;41.932;25.554;2022-09-12T17:48:35;4.28;;;3.95;;
43487;SDS011;29078;41.932;25.554;2022-09-12T17:51:08;4.93;;;4.53;;
43487;SDS011;29078;41.932;25.554;2022-09-12T17:53:34;4.90;;;4.45;;
43487;SDS011;29078;41.932;25.554;2022-09-12T17:56:00;5.63;;;4.20;;
43487;SDS011;29078;41.932;25.554;2022-09-12T17:58:27;4.97;;;4.50;;
43487;SDS011;29078;41.932;25.554;2022-09-12T18:00:58;4.55;;;4.25;;
43487;SDS011;29078;41.932;25.554;2022-09-12T18:03:43;4.70;;;4.40;;
43487;SDS011;29078;41.932;25.554;2022-09-12T18:06:09;4.88;;;4.47;;
43487;SDS011;29078;41.932;25.554;2022-09-12T18:08:35;4.85;;;4.45;;
43487;SDS011;29078;41.932;25.554;2022-09-12T18:11:04;8.05;;;7.35;;
43487;SDS011;29078;41.932;25.554;2022-09-12T18:13:30;5.20;;;4.72;;
43487;SDS011;29078;41.932;25.554;2022-09-12T18:16:07;5.85;;;5.35;;
43487;SDS011;29078;41.932;25.554;2022-09-12T18:18:34;7.28;;;5.32;;
43487;SDS011;29078;41.932;25.554;2022-09-12T18:21:00;9.40;;;5.72;;
43487;SDS011;29078;41.932;25.554;2022-09-12T18:23:26;6.13;;;5.53;;
43487;SDS011;29078;41.932;25.554;2022-09-12T18:25:56;6.28;;;5.53;;
43487;SDS011;29078;41.932;25.554;2022-09-12T18:28:30;7.35;;;5.25;;
43487;SDS011;29078;41.932;25.554;2022-09-12T18:30:57;5.40;;;4.93;;
43487;SDS011;29078;41.932;25.554;2022-09-12T18:33:22;7.28;;;5.47;;
43487;SDS011;29078;41.932;25.554;2022-09-12T18:35:47;4.93;;;4.47;;
43487;SDS011;29078;41.932;25.554;2022-09-12T18:38:13;6.07;;;4.93;;
43487;SDS011;29078;41.932;25.554;2022-09-12T18:40:38;6.55;;;4.78;;
43487;SDS011;29078;41.932;25.554;2022-09-12T18:43:04;5.70;;;4.38;;
43487;SDS011;29078;41.932;25.554;2022-09-12T18:45:29;4.88;;;4.47;;
43487;SDS011;29078;41.932;25.554;2022-09-12T18:47:55;4.82;;;4.43;;
43487;SDS011;29078;41.932;25.554;2022-09-12T18:50:21;5.10;;;4.03;;
43487;SDS011;29078;41.932;25.554;2022-09-12T18:52:50;4.65;;;4.25;;
43487;SDS011;29078;41.932;25.554;2022-09-12T18:55:16;5.03;;;4.55;;
43487;SDS011;29078;41.932;25.554;2022-09-12T18:57:42;5.60;;;5.10;;
43487;SDS011;29078;41.932;25.554;2022-09-12T19:00:07;5.40;;;4.90;;
43487;SDS011;29078;41.932;25.554;2022-09-12T19:02:33;6.47;;;5.50;;
43487;SDS011;29078;41.932;25.554;2022-09-12T19:04:59;5.68;;;5.18;;
43487;SDS011;29078;41.932;25.554;2022-09-12T19:07:24;5.38;;;4.97;;
43487;SDS011;29078;41.932;25.554;2022-09-12T19:09:49;5.82;;;5.22;;
43487;SDS011;29078;41.932;25.554;2022-09-12T19:12:15;5.32;;;4.78;;
43487;SDS011;29078;41.932;25.554;2022-09-12T19:14:40;6.72;;;6.07;;
43487;SDS011;29078;41.932;25.554;2022-09-12T19:17:06;6.00;;;5.40;;
43487;SDS011;29078;41.932;25.554;2022-09-12T19:19:32;6.15;;;5.65;;
43487;SDS011;29078;41.932;25.554;2022-09-12T19:21:57;5.78;;;5.35;;
43487;SDS011;29078;41.932;25.554;2022-09-12T19:24:22;7.57;;;5.72;;
43487;SDS011;29078;41.932;25.554;2022-09-12T19:26:48;5.63;;;5.13;;
43487;SDS011;29078;41.932;25.554;2022-09-12T19:29:14;5.85;;;5.35;;
43487;SDS011;29078;41.932;25.554;2022-09-12T19:31:43;7.13;;;6.20;;
43487;SDS011;29078;41.932;25.554;2022-09-12T19:34:10;5.85;;;5.45;;
43487;SDS011;29078;41.932;25.554;2022-09-12T19:36:37;5.82;;;5.28;;
43487;SDS011;29078;41.932;25.554;2022-09-12T19:39:03;6.32;;;5.45;;
43487;SDS011;29078;41.932;25.554;2022-09-12T19:41:30;6.03;;;5.53;;
43487;SDS011;29078;41.932;25.554;2022-09-12T19:43:56;5.72;;;5.32;;
43487;SDS011;29078;41.932;25.554;2022-09-12T19:46:22;6.20;;;5.70;;
43487;SDS011;29078;41.932;25.554;2022-09-12T19:48:49;5.55;;;5.05;;
43487;SDS011;29078;41.932;25.554;2022-09-12T19:51:16;6.07;;;5.50;;
43487;SDS011;29078;41.932;25.554;2022-09-12T19:53:42;5.43;;;5.13;;
43487;SDS011;29078;41.932;25.554;2022-09-12T19:56:09;5.78;;;5.28;;
43487;SDS011;29078;41.932;25.554;2022-09-12T19:58:36;5.93;;;5.53;;
43487;SDS011;29078;41.932;25.554;2022-09-12T20:01:07;6.13;;;5.68;;
43487;SDS011;29078;41.932;25.554;2022-09-12T20:03:43;8.23;;;5.70;;
43487;SDS011;29078;41.932;25.554;2022-09-12T20:06:11;5.75;;;5.25;;
43487;SDS011;29078;41.932;25.554;2022-09-12T20:08:40;5.65;;;5.10;;
43487;SDS011;29078;41.932;25.554;2022-09-12T20:11:07;6.20;;;5.80;;
43487;SDS011;29078;41.932;25.554;2022-09-12T20:13:33;6.07;;;5.47;;
43487;SDS011;29078;41.932;25.554;2022-09-12T20:16:05;4.85;;;4.55;;
43487;SDS011;29078;41.932;25.554;2022-09-12T20:18:31;5.65;;;4.80;;
43487;SDS011;29078;41.932;25.554;2022-09-12T20:20:56;5.88;;;5.38;;
43487;SDS011;29078;41.932;25.554;2022-09-12T20:23:22;5.75;;;5.35;;
43487;SDS011;29078;41.932;25.554;2022-09-12T20:25:47;5.80;;;5.18;;
43487;SDS011;29078;41.932;25.554;2022-09-12T20:28:13;5.75;;;5.28;;
43487;SDS011;29078;41.932;25.554;2022-09-12T20:30:39;5.65;;;4.90;;
43487;SDS011;29078;41.932;25.554;2022-09-12T20:33:04;5.57;;;5.10;;
43487;SDS011;29078;41.932;25.554;2022-09-12T20:35:30;5.80;;;5.40;;
43487;SDS011;29078;41.932;25.554;2022-09-12T20:37:55;5.45;;;5.13;;
43487;SDS011;29078;41.932;25.554;2022-09-12T20:40:20;5.07;;;4.60;;
43487;SDS011;29078;41.932;25.554;2022-09-12T20:42:46;5.45;;;5.05;;
43487;SDS011;29078;41.932;25.554;2022-09-12T20:45:11;5.70;;;5.18;;
43487;SDS011;29078;41.932;25.554;2022-09-12T20:47:36;5.22;;;4.82;;
43487;SDS011;29078;41.932;25.554;2022-09-12T20:50:02;6.60;;;5.38;;
43487;SDS011;29078;41.932;25.554;2022-09-12T20:52:28;5.68;;;5.28;;
43487;SDS011;29078;41.932;25.554;2022-09-12T20:54:53;6.10;;;5.25;;
43487;SDS011;29078;41.932;25.554;2022-09-12T20:57:18;5.35;;;4.95;;
43487;SDS011;29078;41.932;25.554;2022-09-12T20:59:44;5.47;;;4.97;;
43487;SDS011;29078;41.932;25.554;2022-09-12T21:02:12;5.72;;;5.30;;
43487;SDS011;29078;41.932;25.554;2022-09-12T21:04:38;5.93;;;5.43;;
43487;SDS011;29078;41.932;25.554;2022-09-12T21:07:04;5.63;;;5.05;;
43487;SDS011;29078;41.932;25.554;2022-09-12T21:09:29;5.50;;;5.10;;
43487;SDS011;29078;41.932;25.554;2022-09-12T21:11:55;5.40;;;4.97;;
43487;SDS011;29078;41.932;25.554;2022-09-12T21:14:21;5.20;;;4.90;;
43487;SDS011;29078;41.932;25.554;2022-09-12T21:16:46;5.03;;;4.70;;
43487;SDS011;29078;41.932;25.554;2022-09-12T21:19:11;5.10;;;4.63;;
43487;SDS011;29078;41.932;25.554;2022-09-12T21:21:37;5.97;;;5.47;;
43487;SDS011;29078;41.932;25.554;2022-09-12T21:24:02;5.35;;;4.97;;
43487;SDS011;29078;41.932;25.554;2022-09-12T21:26:28;5.32;;;4.75;;
43487;SDS011;29078;41.932;25.554;2022-09-12T21:28:54;5.80;;;5.10;;
43487;SDS011;29078;41.932;25.554;2022-09-12T21:31:20;5.72;;;5.32;;
43487;SDS011;29078;41.932;25.554;2022-09-12T21:33:45;5.57;;;4.78;;
43487;SDS011;29078;41.932;25.554;2022-09-12T21:36:10;5.78;;;5.28;;
43487;SDS011;29078;41.932;25.554;2022-09-12T21:38:36;4.88;;;4.47;;
43487;SDS011;29078;41.932;25.554;2022-09-12T21:41:06;5.00;;;4.60;;
43487;SDS011;29078;41.932;25.554;2022-09-12T21:45:59;5.63;;;5.13;;
43487;SDS011;29078;41.932;25.554;2022-09-12T21:48:24;5.13;;;4.72;;
43487;SDS011;29078;41.932;25.554;2022-09-12T21:50:50;5.93;;;4.80;;
43487;SDS011;29078;41.932;25.554;2022-09-12T21:53:16;5.40;;;5.00;;
43487;SDS011;29078;41.932;25.554;2022-09-12T21:55:42;5.85;;;5.00;;
43487;SDS011;29078;41.932;25.554;2022-09-12T21:58:07;4.95;;;4.65;;
43487;SDS011;29078;41.932;25.554;2022-09-12T22:00:33;5.50;;;4.97;;
43487;SDS011;29078;41.932;25.554;2022-09-12T22:02:59;5.10;;;4.70;;
43487;SDS011;29078;41.932;25.554;2022-09-12T22:05:24;5.25;;;4.85;;
43487;SDS011;29078;41.932;25.554;2022-09-12T22:07:51;5.20;;;4.80;;
43487;SDS011;29078;41.932;25.554;2022-09-12T22:10:16;5.57;;;5.07;;
43487;SDS011;29078;41.932;25.554;2022-09-12T22:12:42;4.50;;;4.20;;
43487;SDS011;29078;41.932;25.554;2022-09-12T22:15:07;5.38;;;4.93;;
43487;SDS011;29078;41.932;25.554;2022-09-12T22:17:33;5.63;;;5.15;;
43487;SDS011;29078;41.932;25.554;2022-09-12T22:19:58;5.13;;;4.75;;
43487;SDS011;29078;41.932;25.554;2022-09-12T22:22:24;5.40;;;4.95;;
43487;SDS011;29078;41.932;25.554;2022-09-12T22:25:08;4.85;;;4.38;;
43487;SDS011;29078;41.932;25.554;2022-09-12T22:27:35;5.15;;;4.70;;
43487;SDS011;29078;41.932;25.554;2022-09-12T22:30:03;4.45;;;4.13;;
43487;SDS011;29078;41.932;25.554;2022-09-12T22:32:30;5.07;;;4.57;;
43487;SDS011;29078;41.932;25.554;2022-09-12T22:34:55;4.97;;;4.68;;
43487;SDS011;29078;41.932;25.554;2022-09-12T22:37:22;5.53;;;4.78;;
43487;SDS011;29078;41.932;25.554;2022-09-12T22:39:47;5.30;;;4.80;;